METAR Data
IDs: Format: Raw Decoded Include TAF

Data at: 2148 UTC 01 Oct 2022

KPAE 012053Z 36007KT 10SM CLR 21/11 A3001 RMK AO2 SLP162 T02060111 58020

KPAE 011720Z 0118/0218 34005KT P6SM SKC
  FM012000 35010KT P6SM FEW250
  FM020200 33003KT P6SM SKC
  FM021200 VRB02KT 6SM BR SKC


KAWO 012056Z AUTO 29007KT 10SM CLR 23/14 A3000 RMK AO2 SLP162 T02330139 58024
No TAF found for KAWO

KBFI 012053Z 31006KT 10SM CLR 22/13 A2997 RMK AO2 SLP150 T02170128 58023

KBFI 011720Z 0118/0218 33006KT P6SM SKC
  FM012000 36010KT P6SM FEW250
  FM020200 02003KT P6SM FEW250


KRNT 011953Z AUTO 34010KT 6SM HZ CLR 23/13 A2999 RMK AO2 SLP160 T02280133
No TAF found for KRNT

KSEA 012053Z 01011KT 10SM CLR 24/12 A2998 RMK AO2 SLP157 T02390122 58021

KSEA 012053Z 0121/0224 35012KT P6SM SKC
  FM020200 01008KT P6SM FEW250
  FM021500 02003KT P6SM FEW250